createdAt,value
2022-10-22T00:01:10.992Z,10.73
2022-10-22T00:03:40.059Z,11.70
2022-10-22T00:06:08.775Z,11.60
2022-10-22T00:08:38.182Z,13.10
2022-10-22T00:11:13.455Z,11.97
2022-10-22T00:13:42.029Z,11.83
2022-10-22T00:16:10.728Z,12.17
2022-10-22T00:18:39.360Z,12.83
2022-10-22T00:21:07.974Z,13.47
2022-10-22T00:23:37.755Z,13.90
2022-10-22T00:26:05.966Z,14.10
2022-10-22T00:28:33.979Z,13.30
2022-10-22T00:31:02.867Z,14.47
2022-10-22T00:33:31.397Z,14.37
2022-10-22T00:35:59.831Z,12.97
2022-10-22T00:38:28.055Z,14.00
2022-10-22T00:40:57.500Z,12.90
2022-10-22T00:43:25.625Z,11.83
2022-10-22T00:45:53.594Z,12.03
2022-10-22T00:48:24.508Z,12.70
2022-10-22T00:50:56.427Z,12.30
2022-10-22T00:53:27.889Z,14.47
2022-10-22T00:55:57.487Z,12.77
2022-10-22T00:58:29.069Z,13.60
2022-10-22T01:00:58.111Z,12.33
2022-10-22T01:03:26.446Z,12.50
2022-10-22T01:05:58.058Z,11.10
2022-10-22T01:08:30.197Z,13.10
2022-10-22T01:11:09.031Z,13.17
2022-10-22T01:13:48.180Z,13.00
2022-10-22T01:16:22.636Z,13.27
2022-10-22T01:19:00.135Z,12.37
2022-10-22T01:21:34.581Z,11.97
2022-10-22T01:24:36.429Z,11.20
2022-10-22T01:27:16.511Z,13.33
2022-10-22T01:29:49.644Z,12.97
2022-10-22T01:32:20.503Z,13.67
2022-10-22T01:34:53.343Z,13.37
2022-10-22T01:37:25.061Z,13.60
2022-10-22T01:39:54.176Z,14.87
2022-10-22T01:42:22.644Z,13.97
2022-10-22T01:44:51.962Z,13.90
2022-10-22T01:47:30.001Z,13.50
2022-10-22T01:50:21.276Z,13.13
2022-10-22T01:53:02.675Z,14.27
2022-10-22T01:55:37.365Z,13.10
2022-10-22T01:58:19.611Z,14.80
2022-10-22T02:00:55.803Z,13.87
2022-10-22T02:03:29.206Z,14.80
2022-10-22T02:06:00.807Z,12.73
2022-10-22T02:08:32.476Z,13.37
2022-10-22T02:11:01.567Z,12.83
2022-10-22T02:13:33.047Z,13.50
2022-10-22T02:16:03.913Z,13.73
2022-10-22T02:18:38.790Z,15.17
2022-10-22T02:23:41.923Z,13.83
2022-10-22T02:26:17.467Z,13.40
2022-10-22T02:28:53.186Z,14.00
2022-10-22T02:31:27.009Z,13.60
2022-10-22T02:33:58.719Z,14.27
2022-10-22T02:36:27.058Z,13.93
2022-10-22T02:38:56.147Z,14.50
2022-10-22T02:41:24.652Z,12.93
2022-10-22T02:43:55.751Z,15.70
2022-10-22T02:46:26.750Z,16.40
2022-10-22T02:48:55.194Z,15.70
2022-10-22T02:51:23.186Z,16.60
2022-10-22T02:53:51.162Z,16.63
2022-10-22T02:56:19.407Z,15.77
2022-10-22T02:58:47.403Z,14.00
2022-10-22T03:01:16.315Z,13.73
2022-10-22T03:03:46.043Z,14.93
2022-10-22T03:06:14.689Z,15.30
2022-10-22T03:08:43.138Z,15.93
2022-10-22T03:11:11.270Z,14.10
2022-10-22T03:13:39.258Z,17.90
2022-10-22T03:16:08.000Z,15.63
2022-10-22T03:18:36.456Z,17.60
2022-10-22T03:21:12.162Z,16.57
2022-10-22T03:23:41.926Z,18.17
2022-10-22T03:26:11.722Z,16.23
2022-10-22T03:28:41.544Z,17.80
2022-10-22T03:31:10.029Z,17.77
2022-10-22T03:33:37.938Z,17.43
2022-10-22T03:36:09.238Z,16.40
2022-10-22T03:38:38.547Z,15.37
2022-10-22T03:41:07.040Z,17.83
2022-10-22T03:43:35.690Z,16.77
2022-10-22T03:46:04.089Z,16.20
2022-10-22T03:48:32.215Z,16.87
2022-10-22T03:51:00.200Z,17.33
2022-10-22T03:53:29.920Z,18.20
2022-10-22T03:55:57.901Z,16.73
2022-10-22T03:58:26.005Z,18.10
2022-10-22T04:00:54.074Z,17.87
2022-10-22T04:03:22.074Z,16.20
2022-10-22T04:05:50.162Z,18.90
2022-10-22T04:08:18.174Z,16.10
2022-10-22T04:10:53.439Z,18.23
2022-10-22T04:13:21.430Z,16.53
2022-10-22T04:15:49.400Z,18.50
2022-10-22T04:18:17.448Z,19.17
2022-10-22T04:20:45.476Z,16.70
2022-10-22T04:23:13.454Z,19.80
2022-10-22T04:25:41.613Z,17.60
2022-10-22T04:28:11.471Z,17.30
2022-10-22T04:30:39.512Z,19.33
2022-10-22T04:33:07.533Z,17.20
2022-10-22T04:35:39.870Z,16.60
2022-10-22T04:38:07.983Z,17.23
2022-10-22T04:40:35.951Z,18.30
2022-10-22T04:43:03.944Z,17.93
2022-10-22T04:45:33.958Z,17.27
2022-10-22T04:48:01.987Z,18.97
2022-10-22T04:50:30.883Z,18.97
2022-10-22T04:52:59.716Z,17.97
2022-10-22T04:55:27.836Z,17.70
2022-10-22T04:57:56.407Z,17.73
2022-10-22T05:00:24.390Z,17.67
2022-10-22T05:02:54.052Z,17.20
2022-10-22T05:05:22.064Z,16.77
2022-10-22T05:07:52.587Z,16.70
2022-10-22T05:10:20.883Z,18.80
2022-10-22T05:12:48.931Z,17.50
2022-10-22T05:15:17.128Z,18.73
2022-10-22T05:17:45.042Z,16.37
2022-10-22T05:20:14.614Z,21.20
2022-10-22T05:22:42.655Z,18.60
2022-10-22T05:25:12.139Z,19.53
2022-10-22T05:27:40.501Z,19.73
2022-10-22T05:30:09.236Z,17.57
2022-10-22T05:32:37.237Z,18.90
2022-10-22T05:35:05.545Z,16.90
2022-10-22T05:37:34.950Z,19.20
2022-10-22T05:40:18.902Z,19.53
2022-10-22T05:43:10.020Z,21.70
2022-10-22T05:45:39.985Z,18.53
2022-10-22T05:48:09.593Z,19.03
2022-10-22T05:50:39.072Z,19.80
2022-10-22T05:53:08.499Z,17.80
2022-10-22T05:55:38.790Z,18.70
2022-10-22T05:58:07.205Z,20.83
2022-10-22T06:00:35.526Z,20.00
2022-10-22T06:03:03.668Z,21.40
2022-10-22T06:05:32.128Z,18.57
2022-10-22T06:08:00.135Z,19.47
2022-10-22T06:10:29.872Z,20.53
2022-10-22T06:12:57.827Z,19.00
2022-10-22T06:15:26.328Z,19.37
2022-10-22T06:17:54.455Z,18.33
2022-10-22T06:20:22.722Z,18.40
2022-10-22T06:22:50.678Z,18.10
2022-10-22T06:25:19.126Z,19.57
2022-10-22T06:27:52.524Z,20.67
2022-10-22T06:30:20.970Z,17.70
2022-10-22T06:32:49.021Z,18.57
2022-10-22T06:35:17.653Z,19.37
2022-10-22T06:37:47.413Z,21.70
2022-10-22T06:40:19.374Z,20.13
2022-10-22T06:42:47.586Z,20.33
2022-10-22T06:45:18.716Z,19.33
2022-10-22T06:47:51.764Z,18.90
2022-10-22T06:50:21.300Z,19.83
2022-10-22T06:52:52.084Z,20.60
2022-10-22T06:55:21.373Z,19.60
2022-10-22T06:57:49.467Z,20.50
2022-10-22T07:00:19.349Z,20.90
2022-10-22T07:02:57.690Z,20.43
2022-10-22T07:05:27.743Z,20.90
2022-10-22T07:07:55.764Z,19.50
2022-10-22T07:10:26.041Z,20.90
2022-10-22T07:12:57.929Z,21.53
2022-10-22T07:15:27.288Z,21.30
2022-10-22T07:17:55.236Z,20.87
2022-10-22T07:20:34.413Z,22.10
2022-10-22T07:23:02.446Z,19.00
2022-10-22T07:25:30.630Z,23.80
2022-10-22T07:27:58.550Z,21.77
2022-10-22T07:30:27.991Z,21.87
2022-10-22T07:32:55.983Z,22.20
2022-10-22T07:35:24.020Z,25.83
2022-10-22T07:37:52.055Z,20.03
2022-10-22T07:40:20.207Z,23.87
2022-10-22T07:42:48.246Z,21.17
2022-10-22T07:45:16.687Z,23.67
2022-10-22T07:47:48.664Z,21.43
2022-10-22T07:50:16.885Z,22.37
2022-10-22T07:52:45.671Z,23.10
2022-10-22T07:55:13.978Z,21.83
2022-10-22T07:57:42.526Z,44.57
2022-10-22T08:00:11.759Z,25.90
2022-10-22T08:02:40.027Z,21.50
2022-10-22T08:05:13.292Z,23.80
2022-10-22T08:07:41.449Z,21.70
2022-10-22T08:10:11.085Z,24.60
2022-10-22T08:12:40.092Z,28.40
2022-10-22T08:15:09.886Z,24.90
2022-10-22T08:17:38.184Z,21.97
2022-10-22T08:20:06.932Z,24.43
2022-10-22T08:22:36.339Z,24.43
2022-10-22T08:25:06.647Z,25.33
2022-10-22T08:27:34.875Z,24.90
2022-10-22T08:30:03.082Z,24.90
2022-10-22T08:32:31.156Z,24.23
2022-10-22T08:34:59.316Z,25.10
2022-10-22T08:37:27.440Z,23.83
2022-10-22T08:39:57.050Z,22.97
2022-10-22T08:42:44.649Z,25.93
2022-10-22T08:45:15.596Z,24.40
2022-10-22T08:48:03.603Z,26.57
2022-10-22T08:50:35.995Z,24.53
2022-10-22T08:53:08.142Z,24.70
2022-10-22T08:55:38.268Z,25.40
2022-10-22T08:58:17.713Z,22.63
2022-10-22T09:00:51.219Z,23.47
2022-10-22T09:03:37.696Z,22.90
2022-10-22T09:06:12.776Z,21.97
2022-10-22T09:08:43.834Z,23.10
2022-10-22T09:11:23.637Z,23.50
2022-10-22T09:13:54.077Z,22.67
2022-10-22T09:16:28.232Z,24.60
2022-10-22T09:19:07.022Z,22.00
2022-10-22T09:21:44.842Z,23.10
2022-10-22T09:24:17.887Z,21.57
2022-10-22T09:26:47.195Z,23.17
2022-10-22T09:29:20.608Z,20.57
2022-10-22T09:31:48.856Z,19.80
2022-10-22T09:34:20.601Z,20.20
2022-10-22T09:36:48.823Z,39.97
2022-10-22T09:39:25.188Z,20.47
2022-10-22T09:41:54.533Z,19.33
2022-10-22T09:44:22.795Z,19.57
2022-10-22T09:46:51.026Z,20.03
2022-10-22T09:49:22.383Z,21.37
2022-10-22T09:51:54.234Z,20.53
2022-10-22T09:54:40.129Z,20.63
2022-10-22T09:57:18.907Z,20.30
2022-10-22T09:59:51.365Z,21.20
2022-10-22T10:02:37.492Z,22.50
2022-10-22T10:05:09.741Z,22.30
2022-10-22T10:07:38.299Z,19.97
2022-10-22T10:10:25.516Z,23.33
2022-10-22T10:13:02.051Z,21.10
2022-10-22T10:15:36.669Z,20.97
2022-10-22T10:18:14.607Z,21.70
2022-10-22T10:20:47.531Z,21.07
2022-10-22T10:23:25.243Z,21.57
2022-10-22T10:25:59.942Z,22.50
2022-10-22T10:28:49.014Z,20.27
2022-10-22T10:31:25.035Z,19.50
2022-10-22T10:34:04.075Z,18.47
2022-10-22T10:36:45.613Z,19.23
2022-10-22T10:39:19.699Z,16.00
2022-10-22T10:41:55.183Z,12.40
2022-10-22T10:44:43.099Z,10.10
2022-10-22T10:47:25.376Z,7.03
2022-10-22T10:50:07.237Z,6.37
2022-10-22T10:52:48.068Z,5.50
2022-10-22T10:55:29.771Z,6.33
2022-10-22T10:58:07.145Z,4.87
2022-10-22T11:00:47.327Z,4.73
2022-10-22T11:03:39.580Z,3.80
2022-10-22T11:06:10.691Z,3.70
2022-10-22T11:08:43.430Z,3.00
2022-10-22T11:11:14.365Z,3.40
2022-10-22T11:13:47.764Z,3.10
2022-10-22T11:16:25.063Z,3.10
2022-10-22T11:18:59.302Z,2.83
2022-10-22T11:21:34.100Z,3.10
2022-10-22T11:24:09.476Z,2.57
2022-10-22T11:26:49.910Z,2.97
2022-10-22T11:29:27.313Z,3.60
2022-10-22T11:32:05.507Z,2.80
2022-10-22T11:34:41.572Z,3.20
2022-10-22T11:37:12.934Z,2.70
2022-10-22T11:39:45.960Z,2.40
2022-10-22T11:42:22.052Z,2.10
2022-10-22T11:45:03.800Z,2.83
2022-10-22T11:47:53.585Z,2.20
2022-10-22T11:50:25.511Z,2.20
2022-10-22T11:53:04.104Z,2.30
2022-10-22T11:55:35.907Z,2.73
2022-10-22T11:58:32.730Z,2.03
2022-10-22T12:01:29.688Z,2.27
2022-10-22T12:04:21.375Z,2.33
2022-10-22T12:06:55.926Z,1.80
2022-10-22T12:09:26.698Z,2.00
2022-10-22T12:11:55.782Z,2.30
2022-10-22T12:14:32.928Z,2.27
2022-10-22T12:17:08.941Z,2.33
2022-10-22T12:19:44.187Z,2.10
2022-10-22T12:22:20.809Z,3.00
2022-10-22T12:24:54.684Z,4.13
2022-10-22T12:27:27.905Z,4.70
2022-10-22T12:29:59.164Z,3.63
2022-10-22T12:32:35.273Z,3.00
2022-10-22T12:35:15.992Z,4.07
2022-10-22T12:37:45.051Z,2.57
2022-10-22T12:40:23.952Z,4.03
2022-10-22T12:42:57.477Z,4.97
2022-10-22T12:45:29.432Z,3.37
2022-10-22T12:48:00.216Z,5.53
2022-10-22T12:50:34.351Z,5.03
2022-10-22T12:53:02.760Z,2.30
2022-10-22T12:55:34.249Z,2.50
2022-10-22T12:58:06.828Z,2.43
2022-10-22T13:00:37.490Z,2.23
2022-10-22T13:03:08.211Z,2.33
2022-10-22T13:05:39.845Z,3.03
2022-10-22T13:08:12.127Z,3.70
2022-10-22T13:10:42.240Z,2.77
2022-10-22T13:13:32.047Z,3.70
2022-10-22T13:16:17.369Z,2.70
2022-10-22T13:18:46.780Z,3.50
2022-10-22T13:21:30.892Z,3.43
2022-10-22T13:24:01.350Z,3.20
2022-10-22T13:26:35.701Z,3.60
2022-10-22T13:29:10.534Z,4.17
2022-10-22T13:31:45.805Z,3.30
2022-10-22T13:34:18.405Z,3.77
2022-10-22T13:36:48.766Z,3.80
2022-10-22T13:39:20.277Z,3.53
2022-10-22T13:41:50.213Z,3.80
2022-10-22T13:44:18.424Z,3.20
2022-10-22T13:46:53.726Z,3.30
2022-10-22T13:49:23.566Z,6.93
2022-10-22T13:51:53.606Z,3.33
2022-10-22T13:54:24.990Z,4.30
2022-10-22T13:56:53.618Z,4.10
2022-10-22T13:59:23.777Z,3.80
2022-10-22T14:01:55.834Z,3.33
2022-10-22T14:04:23.852Z,3.37
2022-10-22T14:06:53.347Z,3.13
2022-10-22T14:09:22.035Z,2.83
2022-10-22T14:11:50.217Z,3.63
2022-10-22T14:14:18.815Z,3.50
2022-10-22T14:16:47.176Z,3.80
2022-10-22T14:19:18.964Z,4.07
2022-10-22T14:21:47.081Z,3.30
2022-10-22T14:24:16.529Z,2.90
2022-10-22T14:26:44.610Z,3.10
2022-10-22T14:29:12.646Z,3.47
2022-10-22T14:31:42.219Z,2.90
2022-10-22T14:34:11.853Z,2.53
2022-10-22T14:36:40.203Z,3.37
2022-10-22T14:39:08.320Z,2.50
2022-10-22T14:41:38.667Z,2.13
2022-10-22T14:44:12.511Z,2.20
2022-10-22T14:46:42.555Z,4.67
2022-10-22T14:49:11.865Z,2.70
2022-10-22T14:51:39.881Z,3.30
2022-10-22T14:54:08.219Z,2.30
2022-10-22T14:59:05.974Z,3.00
2022-10-22T15:01:33.992Z,1.93
2022-10-22T15:04:04.459Z,1.90
2022-10-22T15:06:32.479Z,2.30
2022-10-22T15:09:00.558Z,1.90
2022-10-22T15:11:28.779Z,2.50
2022-10-22T15:13:58.264Z,2.30
2022-10-22T15:16:26.382Z,1.97
2022-10-22T15:18:54.644Z,1.80
2022-10-22T15:21:24.391Z,1.90
2022-10-22T15:23:52.420Z,2.10
2022-10-22T15:26:20.497Z,2.20
2022-10-22T15:28:48.775Z,2.00
2022-10-22T15:31:38.375Z,2.50
2022-10-22T15:34:06.510Z,1.70
2022-10-22T15:36:34.628Z,1.80
2022-10-22T15:39:07.876Z,2.23
2022-10-22T15:41:36.247Z,2.83
2022-10-22T15:44:05.834Z,2.33
2022-10-22T15:46:36.002Z,2.77
2022-10-22T15:49:04.400Z,2.50
2022-10-22T15:51:32.736Z,5.43
2022-10-22T15:54:06.456Z,5.40
2022-10-22T15:56:37.284Z,8.10
2022-10-22T15:59:05.500Z,6.80
2022-10-22T16:01:36.124Z,6.83
2022-10-22T16:04:04.714Z,7.87
2022-10-22T16:06:37.746Z,9.80
2022-10-22T16:09:09.127Z,9.17
2022-10-22T16:11:38.359Z,6.70
2022-10-22T16:14:14.625Z,6.73
2022-10-22T16:16:46.488Z,3.83
2022-10-22T16:19:15.841Z,3.60
2022-10-22T16:21:44.711Z,3.27
2022-10-22T16:24:13.168Z,3.23
2022-10-22T16:26:41.195Z,4.83
2022-10-22T16:29:11.413Z,14.10
2022-10-22T16:31:40.095Z,12.30
2022-10-22T16:34:09.540Z,13.47
2022-10-22T16:36:38.331Z,17.60
2022-10-22T16:39:07.106Z,18.63
2022-10-22T16:41:36.322Z,14.33
2022-10-22T16:44:07.673Z,12.47
2022-10-22T16:46:38.465Z,10.70
2022-10-22T16:49:09.781Z,10.20
2022-10-22T16:51:40.256Z,9.27
2022-10-22T16:54:11.385Z,8.90
2022-10-22T16:56:43.218Z,10.03
2022-10-22T16:59:11.338Z,12.07
2022-10-22T17:01:41.173Z,10.47
2022-10-22T17:04:35.488Z,7.87
2022-10-22T17:07:04.892Z,10.47
2022-10-22T17:09:32.891Z,7.53
2022-10-22T17:12:01.034Z,5.97
2022-10-22T17:14:33.363Z,5.53
2022-10-22T17:17:11.572Z,8.03
2022-10-22T17:19:39.733Z,13.40
2022-10-22T17:22:09.415Z,11.93
2022-10-22T17:24:38.785Z,13.30
2022-10-22T17:27:06.899Z,11.60
2022-10-22T17:29:37.055Z,14.73
2022-10-22T17:32:09.433Z,11.27
2022-10-22T17:34:37.556Z,9.20
2022-10-22T17:37:05.900Z,11.60
2022-10-22T17:39:35.816Z,10.30
2022-10-22T17:42:04.224Z,8.63
2022-10-22T17:44:32.880Z,9.90
2022-10-22T17:47:01.748Z,9.40
2022-10-22T17:49:29.709Z,8.40
2022-10-22T17:51:57.962Z,9.07
2022-10-22T17:54:26.218Z,9.30
2022-10-22T17:56:55.796Z,7.77
2022-10-22T17:59:25.718Z,8.83
2022-10-22T18:02:00.099Z,7.50
2022-10-22T18:04:29.441Z,7.30
2022-10-22T18:06:58.486Z,6.57
2022-10-22T18:09:27.299Z,7.03
2022-10-22T18:11:56.780Z,7.00
2022-10-22T18:14:25.653Z,6.37
2022-10-22T18:16:54.516Z,4.53
2022-10-22T18:19:24.590Z,5.40
2022-10-22T18:22:00.670Z,5.37
2022-10-22T18:24:29.201Z,5.80
2022-10-22T18:26:58.625Z,8.40
2022-10-22T18:29:36.967Z,6.80
2022-10-22T18:32:12.148Z,7.63
2022-10-22T18:34:41.337Z,6.87
2022-10-22T18:37:09.628Z,8.47
2022-10-22T18:39:37.675Z,8.60
2022-10-22T18:42:07.258Z,10.97
2022-10-22T18:44:36.396Z,9.00
2022-10-22T18:47:04.742Z,10.07
2022-10-22T18:49:34.729Z,12.73
2022-10-22T18:52:06.171Z,10.20
2022-10-22T18:54:34.609Z,5.73
2022-10-22T18:57:03.239Z,5.03
2022-10-22T18:59:33.290Z,9.00
2022-10-22T19:02:01.283Z,5.50
2022-10-22T19:04:33.593Z,11.00
2022-10-22T19:07:01.677Z,15.93
2022-10-22T19:09:34.793Z,10.00
2022-10-22T19:12:02.835Z,7.60
2022-10-22T19:14:33.125Z,6.37
2022-10-22T19:17:03.068Z,6.17
2022-10-22T19:19:37.380Z,6.83
2022-10-22T19:22:08.604Z,7.00
2022-10-22T19:24:36.849Z,8.00
2022-10-22T19:27:05.052Z,4.40
2022-10-22T19:29:34.571Z,3.83
2022-10-22T19:32:02.745Z,4.37
2022-10-22T19:34:30.812Z,4.07
2022-10-22T19:36:59.624Z,4.57
2022-10-22T19:39:27.663Z,4.63
2022-10-22T19:41:55.622Z,5.57
2022-10-22T19:44:23.929Z,4.60
2022-10-22T19:46:54.376Z,5.40
2022-10-22T19:49:25.461Z,4.40
2022-10-22T19:51:53.475Z,4.80
2022-10-22T19:54:24.719Z,4.70
2022-10-22T19:56:53.719Z,4.73
2022-10-22T19:59:26.182Z,4.60
2022-10-22T20:01:58.002Z,4.43
2022-10-22T20:04:27.985Z,4.07
2022-10-22T20:06:56.170Z,5.33
2022-10-22T20:09:24.493Z,4.50
2022-10-22T20:11:52.615Z,3.83
2022-10-22T20:14:20.635Z,4.33
2022-10-22T20:16:50.518Z,3.50
2022-10-22T20:19:19.922Z,3.33
2022-10-22T20:21:49.187Z,4.83
2022-10-22T20:24:17.370Z,4.77
2022-10-22T20:26:46.542Z,4.47
2022-10-22T20:29:15.411Z,4.70
2022-10-22T20:31:43.561Z,5.07
2022-10-22T20:34:11.624Z,4.93
2022-10-22T20:36:41.375Z,4.73
2022-10-22T20:39:16.428Z,4.60
2022-10-22T20:41:45.954Z,5.07
2022-10-22T20:44:18.880Z,4.50
2022-10-22T20:46:47.005Z,5.47
2022-10-22T20:49:18.089Z,5.40
2022-10-22T20:51:47.562Z,5.10
2022-10-22T20:54:19.125Z,5.93
2022-10-22T20:56:48.324Z,4.87
2022-10-22T20:59:16.968Z,5.30
2022-10-22T21:01:48.144Z,5.40
2022-10-22T21:04:17.553Z,4.97
2022-10-22T21:06:48.663Z,5.50
2022-10-22T21:09:17.236Z,6.40
2022-10-22T21:11:45.392Z,5.20
2022-10-22T21:14:16.854Z,5.97
2022-10-22T21:16:48.332Z,5.80
2022-10-22T21:19:16.608Z,5.17
2022-10-22T21:21:44.632Z,5.90
2022-10-22T21:24:14.211Z,5.63
2022-10-22T21:26:44.094Z,5.90
2022-10-22T21:29:13.899Z,5.17
2022-10-22T21:31:41.970Z,6.20
2022-10-22T21:34:12.911Z,5.73
2022-10-22T21:36:41.228Z,5.10
2022-10-22T21:39:10.189Z,5.10
2022-10-22T21:41:39.600Z,5.70
2022-10-22T21:44:07.655Z,4.87
2022-10-22T21:46:36.193Z,5.57
2022-10-22T21:49:06.710Z,4.80
2022-10-22T21:51:38.038Z,5.20
2022-10-22T21:54:06.375Z,5.90
2022-10-22T21:56:36.573Z,5.47
2022-10-22T21:59:08.106Z,5.73
2022-10-22T22:01:39.861Z,6.10
2022-10-22T22:04:11.101Z,5.57
2022-10-22T22:06:40.093Z,6.07
2022-10-22T22:09:08.522Z,5.40
2022-10-22T22:11:39.297Z,5.50
2022-10-22T22:14:11.324Z,5.33
2022-10-22T22:16:40.000Z,6.60
2022-10-22T22:19:10.108Z,5.70
2022-10-22T22:21:43.676Z,6.27
2022-10-22T22:24:14.343Z,5.30
2022-10-22T22:26:43.583Z,5.60
2022-10-22T22:29:13.104Z,5.80
2022-10-22T22:31:42.905Z,5.57
2022-10-22T22:34:16.103Z,5.93
2022-10-22T22:36:46.578Z,5.83
2022-10-22T22:39:15.910Z,5.17
2022-10-22T22:41:45.210Z,6.10
2022-10-22T22:44:15.015Z,5.67
2022-10-22T22:46:43.302Z,5.00
2022-10-22T22:49:11.327Z,5.53
2022-10-22T22:51:39.311Z,5.63
2022-10-22T22:54:07.886Z,5.63
2022-10-22T22:56:35.976Z,5.47
2022-10-22T22:59:06.043Z,5.23
2022-10-22T23:01:37.339Z,5.07
2022-10-22T23:04:07.479Z,4.87
2022-10-22T23:06:45.115Z,5.60
2022-10-22T23:09:15.893Z,6.13
2022-10-22T23:11:45.649Z,5.57
2022-10-22T23:14:15.918Z,6.17
2022-10-22T23:16:49.995Z,5.73
2022-10-22T23:19:20.804Z,6.20
2022-10-22T23:21:51.184Z,5.40
2022-10-22T23:24:24.764Z,5.93
2022-10-22T23:26:54.256Z,6.77
2022-10-22T23:29:24.378Z,5.40
2022-10-22T23:31:56.683Z,5.80
2022-10-22T23:34:26.202Z,6.33
2022-10-22T23:36:55.748Z,5.53
2022-10-22T23:39:25.427Z,5.70
2022-10-22T23:41:54.220Z,5.97
2022-10-22T23:44:22.952Z,5.10
2022-10-22T23:46:51.193Z,6.33
2022-10-22T23:49:20.611Z,6.20
2022-10-22T23:51:48.607Z,6.20
2022-10-22T23:54:18.898Z,5.27
2022-10-22T23:56:47.246Z,5.00
2022-10-22T23:59:15.734Z,6.30
